createdAt,value
2018-09-21T00:01:54.090Z,98954.39
2018-09-21T00:04:23.749Z,98953.56
2018-09-21T00:06:53.110Z,98954.13
2018-09-21T00:09:21.675Z,98953.56
2018-09-21T00:11:50.275Z,98949.36
2018-09-21T00:14:19.150Z,98946.52
2018-09-21T00:16:48.839Z,98941.98
2018-09-21T00:19:17.493Z,98933.66
2018-09-21T00:21:46.901Z,98934.44
2018-09-21T00:24:15.642Z,98939.00
2018-09-21T00:26:45.033Z,98930.82
2018-09-21T00:29:15.078Z,98938.20
2018-09-21T00:31:46.120Z,98929.45
2018-09-21T00:34:14.735Z,98923.59
2018-09-21T00:36:44.018Z,98916.77
2018-09-21T00:39:13.501Z,98916.56
2018-09-21T00:41:43.457Z,98915.56
2018-09-21T00:44:12.745Z,98911.11
2018-09-21T00:46:42.346Z,98905.87
2018-09-21T00:49:11.065Z,98909.26
2018-09-21T00:51:41.649Z,98907.39
2018-09-21T00:54:11.155Z,98902.00
2018-09-21T00:56:40.818Z,98903.39
2018-09-21T00:59:09.592Z,98901.78
2018-09-21T01:01:38.160Z,98897.69
2018-09-21T01:04:07.390Z,98905.09
2018-09-21T01:06:37.100Z,98900.16
2018-09-21T01:09:08.895Z,98897.55
2018-09-21T01:11:38.509Z,98897.32
2018-09-21T01:14:09.566Z,98901.17
2018-09-21T01:16:39.342Z,98901.70
2018-09-21T01:19:08.702Z,98893.50
2018-09-21T01:21:37.783Z,98892.62
2018-09-21T01:24:06.096Z,98889.13
2018-09-21T01:26:34.642Z,98885.53
2018-09-21T01:29:03.281Z,98864.90
2018-09-21T01:31:31.886Z,98866.19
2018-09-21T01:34:00.455Z,98866.28
2018-09-21T01:36:28.984Z,98863.05
2018-09-21T01:39:00.462Z,98860.23
2018-09-21T01:41:28.993Z,98858.72
2018-09-21T01:43:57.564Z,98855.41
2018-09-21T01:46:26.145Z,98857.95
2018-09-21T01:48:54.728Z,98854.35
2018-09-21T01:51:23.278Z,98850.95
2018-09-21T01:53:51.847Z,98854.09
2018-09-21T01:56:20.436Z,98847.19
2018-09-21T01:58:49.033Z,98844.67
2018-09-21T02:01:17.609Z,98839.06
2018-09-21T02:03:46.341Z,98843.05
2018-09-21T02:06:15.101Z,98837.47
2018-09-21T02:08:43.685Z,98833.67
2018-09-21T02:11:12.283Z,98829.11
2018-09-21T02:13:40.884Z,98835.05
2018-09-21T02:16:09.413Z,98836.16
2018-09-21T02:18:37.982Z,98830.77
2018-09-21T02:21:06.546Z,98827.16
2018-09-21T02:23:35.098Z,98826.17
2018-09-21T02:26:03.630Z,98832.67
2018-09-21T02:28:32.177Z,98827.36
2018-09-21T02:31:00.694Z,98826.01
2018-09-21T02:33:29.286Z,98820.61
2018-09-21T02:35:57.830Z,98815.39
2018-09-21T02:38:26.462Z,98812.88
2018-09-21T02:40:55.009Z,98812.30
2018-09-21T02:43:23.616Z,98809.22
2018-09-21T02:45:52.161Z,98806.52
2018-09-21T02:48:20.704Z,98807.61
2018-09-21T02:50:49.287Z,98802.41
2018-09-21T02:53:17.842Z,98802.91
2018-09-21T02:55:46.436Z,98799.41
2018-09-21T02:58:14.997Z,98797.92
2018-09-21T03:00:43.696Z,98797.06
2018-09-21T03:03:12.173Z,98794.92
2018-09-21T03:05:40.754Z,98795.48
2018-09-21T03:08:09.294Z,98785.20
2018-09-21T03:10:37.848Z,98782.13
2018-09-21T03:13:07.028Z,98785.16
2018-09-21T03:15:35.568Z,98786.73
2018-09-21T03:18:04.106Z,98780.67
2018-09-21T03:20:32.673Z,98774.03
2018-09-21T03:23:01.246Z,98779.31
2018-09-21T03:25:29.781Z,98782.78
2018-09-21T03:27:58.300Z,98774.98
2018-09-21T03:30:26.851Z,98766.25
2018-09-21T03:32:55.377Z,98756.10
2018-09-21T03:35:24.025Z,98754.12
2018-09-21T03:37:52.482Z,98755.53
2018-09-21T03:40:21.299Z,98750.44
2018-09-21T03:42:50.195Z,98750.17
2018-09-21T03:45:18.758Z,98748.83
2018-09-21T03:47:47.309Z,98744.32
2018-09-21T03:50:15.870Z,98743.17
2018-09-21T03:52:44.415Z,98739.66
2018-09-21T03:55:12.984Z,98736.72
2018-09-21T03:57:41.493Z,98736.24
2018-09-21T04:00:10.412Z,98734.02
2018-09-21T04:02:38.941Z,98736.40
2018-09-21T04:05:17.324Z,98731.54
2018-09-21T04:07:46.539Z,98730.59
2018-09-21T04:10:16.094Z,98727.13
2018-09-21T04:12:44.706Z,98731.43
2018-09-21T04:15:13.661Z,98721.97
2018-09-21T04:17:42.204Z,98723.37
2018-09-21T04:20:11.106Z,98712.94
2018-09-21T04:22:39.685Z,98710.06
2018-09-21T04:25:09.790Z,98701.66
2018-09-21T04:27:38.454Z,98700.41
2018-09-21T04:30:07.149Z,98699.59
2018-09-21T04:32:35.860Z,98697.00
2018-09-21T04:35:04.506Z,98707.28
2018-09-21T04:37:33.055Z,98702.91
2018-09-21T04:40:01.628Z,98694.72
2018-09-21T04:42:30.715Z,98689.91
2018-09-21T04:44:59.472Z,98686.53
2018-09-21T04:47:28.037Z,98679.17
2018-09-21T04:49:56.572Z,98679.47
2018-09-21T04:52:25.940Z,98682.34
2018-09-21T04:54:54.524Z,98674.00
2018-09-21T04:57:23.105Z,98673.69
2018-09-21T04:59:51.658Z,98673.47
2018-09-21T05:02:20.230Z,98674.26
2018-09-21T05:04:48.768Z,98680.70
2018-09-21T05:07:17.629Z,98685.30
2018-09-21T05:09:46.230Z,98678.56
2018-09-21T05:12:14.818Z,98679.81
2018-09-21T05:14:43.779Z,98682.74
2018-09-21T05:17:12.586Z,98685.72
2018-09-21T05:19:41.501Z,98687.39
2018-09-21T05:22:10.063Z,98680.03
2018-09-21T05:24:38.605Z,98675.23
2018-09-21T05:27:07.284Z,98668.03
2018-09-21T05:29:36.422Z,98687.58
2018-09-21T05:32:05.908Z,98682.37
2018-09-21T05:34:34.499Z,98671.59
2018-09-21T05:37:03.021Z,98679.02
2018-09-21T05:39:31.617Z,98691.64
2018-09-21T05:42:00.194Z,98692.45
2018-09-21T05:44:28.735Z,98696.34
2018-09-21T05:46:57.379Z,98696.05
2018-09-21T05:49:25.857Z,98700.16
2018-09-21T05:51:58.143Z,98714.36
2018-09-21T05:54:26.675Z,98718.13
2018-09-21T05:56:55.289Z,98720.87
2018-09-21T05:59:23.841Z,98729.06
2018-09-21T06:01:52.436Z,98732.16
2018-09-21T06:04:20.962Z,98730.69
2018-09-21T06:06:49.968Z,98735.69
2018-09-21T06:09:18.525Z,98737.80
2018-09-21T06:11:47.094Z,98740.64
2018-09-21T06:14:15.626Z,98735.89
2018-09-21T06:16:50.621Z,98746.47
2018-09-21T06:19:19.317Z,98736.41
2018-09-21T06:21:47.892Z,98736.15
2018-09-21T06:24:17.257Z,98740.34
2018-09-21T06:26:45.813Z,98735.02
2018-09-21T06:29:14.355Z,98741.25
2018-09-21T06:31:42.908Z,98733.13
2018-09-21T06:34:11.454Z,98743.02
2018-09-21T06:36:40.031Z,98745.45
2018-09-21T06:39:10.705Z,98728.72
2018-09-21T06:41:39.638Z,98726.84
2018-09-21T06:44:08.805Z,98732.66
2018-09-21T06:46:37.388Z,98723.10
2018-09-21T06:49:06.320Z,98720.08
2018-09-21T06:51:34.857Z,98723.80
2018-09-21T06:54:03.486Z,98728.98
2018-09-21T06:56:31.996Z,98733.59
2018-09-21T06:59:00.569Z,98729.20
2018-09-21T07:01:29.164Z,98725.30
2018-09-21T07:03:57.701Z,98726.52
2018-09-21T07:06:26.240Z,98714.77
2018-09-21T07:08:54.795Z,98723.28
2018-09-21T07:11:23.317Z,98721.67
2018-09-21T07:13:52.325Z,98711.92
2018-09-21T07:16:20.827Z,98712.50
2018-09-21T07:18:49.433Z,98719.19
2018-09-21T07:21:17.986Z,98726.18
2018-09-21T07:23:46.528Z,98715.22
2018-09-21T07:26:15.053Z,98716.55
2018-09-21T07:28:43.669Z,98717.52
2018-09-21T07:31:12.241Z,98716.02
2018-09-21T07:33:40.766Z,98716.47
2018-09-21T07:36:09.344Z,98711.95
2018-09-21T07:38:37.898Z,98718.28
2018-09-21T07:41:06.442Z,98715.59
2018-09-21T07:43:35.000Z,98721.91
2018-09-21T07:46:03.513Z,98720.07
2018-09-21T07:48:32.066Z,98717.55
2018-09-21T07:51:00.584Z,98713.86
2018-09-21T07:53:29.163Z,98703.02
2018-09-21T07:55:57.707Z,98701.31
2018-09-21T07:58:26.299Z,98694.16
2018-09-21T08:00:55.072Z,98689.17
2018-09-21T08:03:23.612Z,98700.52
2018-09-21T08:05:52.188Z,98710.30
2018-09-21T08:08:20.730Z,98722.13
2018-09-21T08:10:49.306Z,98729.79
2018-09-21T08:13:17.883Z,98738.78
2018-09-21T08:15:46.417Z,98741.45
2018-09-21T08:18:14.961Z,98738.44
2018-09-21T08:20:43.505Z,98747.47
2018-09-21T08:23:12.115Z,98759.13
2018-09-21T08:25:40.893Z,98758.95
2018-09-21T08:28:09.508Z,98761.08
2018-09-21T08:30:38.047Z,98768.22
2018-09-21T08:33:06.628Z,98784.23
2018-09-21T08:35:35.178Z,98776.05
2018-09-21T08:38:03.723Z,98772.22
2018-09-21T08:40:32.310Z,98768.77
2018-09-21T08:43:00.838Z,98761.07
2018-09-21T08:45:29.439Z,98752.38
2018-09-21T08:47:57.994Z,98742.34
2018-09-21T08:50:26.553Z,98741.45
2018-09-21T08:52:55.095Z,98742.44
2018-09-21T08:55:23.659Z,98743.64
2018-09-21T08:57:52.197Z,98726.23
2018-09-21T09:00:20.767Z,98731.45
2018-09-21T09:02:49.332Z,98733.95
2018-09-21T09:05:17.955Z,98705.77
2018-09-21T09:07:46.497Z,98726.29
2018-09-21T09:10:15.101Z,98711.62
2018-09-21T09:12:43.645Z,98738.95
2018-09-21T09:15:12.320Z,98745.92
2018-09-21T09:17:40.864Z,98730.44
2018-09-21T09:20:09.764Z,98746.93
2018-09-21T09:22:38.358Z,98728.52
2018-09-21T09:25:07.577Z,98744.30
2018-09-21T09:27:36.521Z,98742.58
2018-09-21T09:30:05.698Z,98754.12
2018-09-21T09:32:34.232Z,98738.33
2018-09-21T09:35:02.807Z,98735.61
2018-09-21T09:37:31.331Z,98716.90
2018-09-21T09:39:59.906Z,98755.39
2018-09-21T09:42:28.430Z,98718.30
2018-09-21T09:44:56.994Z,98722.53
2018-09-21T09:47:25.532Z,98732.23
2018-09-21T09:49:54.116Z,98719.91
2018-09-21T09:52:22.629Z,98715.56
2018-09-21T09:54:51.222Z,98729.06
2018-09-21T09:57:19.759Z,98729.31
2018-09-21T09:59:48.309Z,98709.66
2018-09-21T10:02:16.820Z,98715.91
2018-09-21T10:04:45.360Z,98708.41
2018-09-21T10:07:13.890Z,98712.24
2018-09-21T10:09:42.420Z,98722.94
2018-09-21T10:12:10.973Z,98702.60
2018-09-21T10:14:39.531Z,98721.94
2018-09-21T10:17:08.328Z,98720.14
2018-09-21T10:19:36.829Z,98745.64
2018-09-21T10:22:05.373Z,98720.52
2018-09-21T10:24:33.888Z,98711.55
2018-09-21T10:27:02.501Z,98718.85
2018-09-21T10:29:30.983Z,98728.53
2018-09-21T10:31:59.533Z,98734.52
2018-09-21T10:34:28.194Z,98749.97
2018-09-21T10:36:56.807Z,98756.45
2018-09-21T10:39:25.324Z,98767.42
2018-09-21T10:41:53.880Z,98760.59
2018-09-21T10:44:22.396Z,98753.45
2018-09-21T10:46:50.951Z,98738.98
2018-09-21T10:49:19.485Z,98746.80
2018-09-21T10:51:53.159Z,98767.89
2018-09-21T10:54:22.111Z,98764.73
2018-09-21T10:56:50.645Z,98765.69
2018-09-21T10:59:19.153Z,98767.81
2018-09-21T11:01:47.702Z,98776.78
2018-09-21T11:04:16.238Z,98782.23
2018-09-21T11:06:47.330Z,98787.86
2018-09-21T11:09:21.059Z,98782.34
2018-09-21T11:11:55.355Z,98785.75
2018-09-21T11:14:35.080Z,98781.71
2018-09-21T11:17:15.171Z,98777.77
2018-09-21T11:19:54.227Z,98781.33
2018-09-21T11:22:32.852Z,98789.42
2018-09-21T11:25:09.000Z,98799.84
2018-09-21T11:27:38.027Z,98786.16
2018-09-21T11:30:06.721Z,98803.98
2018-09-21T11:32:35.253Z,98784.38
2018-09-21T11:35:03.805Z,98803.26
2018-09-21T11:37:32.422Z,98798.36
2018-09-21T11:40:00.942Z,98781.19
2018-09-21T11:42:29.487Z,98796.33
2018-09-21T11:44:58.015Z,98794.17
2018-09-21T11:47:26.690Z,98833.64
2018-09-21T11:49:55.098Z,98875.28
2018-09-21T11:52:23.642Z,98924.33
2018-09-21T11:54:52.153Z,98934.73
2018-09-21T11:57:20.710Z,98928.45
2018-09-21T11:59:49.257Z,98939.14
2018-09-21T12:02:17.814Z,98942.59
2018-09-21T12:04:46.402Z,98967.89
2018-09-21T12:07:14.989Z,98933.16
2018-09-21T12:09:43.504Z,98923.87
2018-09-21T12:12:16.824Z,98927.30
2018-09-21T12:14:45.613Z,98967.42
2018-09-21T12:17:14.181Z,98965.78
2018-09-21T12:19:42.711Z,98961.94
2018-09-21T12:22:11.299Z,98968.31
2018-09-21T12:24:39.769Z,98978.02
2018-09-21T12:27:12.850Z,98966.39
2018-09-21T12:29:41.546Z,98998.40
2018-09-21T12:32:10.094Z,99000.42
2018-09-21T12:34:38.606Z,98989.88
2018-09-21T12:37:07.193Z,98985.09
2018-09-21T12:39:35.695Z,98968.01
2018-09-21T12:42:04.261Z,98970.06
2018-09-21T12:44:32.885Z,98959.17
2018-09-21T12:47:01.681Z,98951.20
2018-09-21T12:49:31.320Z,98956.05
2018-09-21T12:51:59.849Z,98956.36
2018-09-21T12:54:29.121Z,98959.06
2018-09-21T12:56:57.760Z,98965.35
2018-09-21T12:59:26.309Z,98963.77
2018-09-21T13:01:55.573Z,98975.14
2018-09-21T13:04:24.692Z,99008.45
2018-09-21T13:06:53.968Z,99018.64
2018-09-21T13:09:22.550Z,99037.20
2018-09-21T13:11:51.192Z,99034.95
2018-09-21T13:14:20.059Z,99039.61
2018-09-21T13:16:50.381Z,99034.22
2018-09-21T13:19:19.601Z,99040.47
2018-09-21T13:21:57.881Z,99032.06
2018-09-21T13:24:26.717Z,99015.61
2018-09-21T13:26:56.419Z,98998.19
2018-09-21T13:29:26.652Z,99008.60
2018-09-21T13:31:56.334Z,99023.66
2018-09-21T13:34:26.021Z,99032.74
2018-09-21T13:36:54.640Z,99034.77
2018-09-21T13:39:33.765Z,99036.91
2018-09-21T13:42:02.352Z,99029.94
2018-09-21T13:44:30.901Z,99036.78
2018-09-21T13:46:59.454Z,99038.10
2018-09-21T13:49:31.734Z,99042.16
2018-09-21T13:52:04.353Z,99048.87
2018-09-21T13:54:37.956Z,99042.03
2018-09-21T13:57:11.380Z,99034.08
2018-09-21T13:59:45.690Z,99046.31
2018-09-21T14:02:18.507Z,99044.04
2018-09-21T14:04:49.218Z,99051.42
2018-09-21T14:07:23.078Z,99057.78
2018-09-21T14:09:56.195Z,99061.77
2018-09-21T14:12:29.045Z,99057.55
2018-09-21T14:15:02.345Z,99058.88
2018-09-21T14:17:35.095Z,99065.31
2018-09-21T14:20:05.668Z,99070.92
2018-09-21T14:22:34.733Z,99071.07
2018-09-21T14:25:03.767Z,99068.91
2018-09-21T14:27:32.349Z,99065.38
2018-09-21T14:30:00.935Z,99070.22
2018-09-21T14:32:29.956Z,99074.04
2018-09-21T14:34:59.097Z,99069.92
2018-09-21T14:37:28.282Z,99068.29
2018-09-21T14:40:06.044Z,99086.02
2018-09-21T14:42:35.944Z,99076.35
2018-09-21T14:45:07.787Z,99086.85
2018-09-21T14:47:36.563Z,99093.73
2018-09-21T14:50:05.216Z,99090.56
2018-09-21T14:52:34.246Z,99103.42
2018-09-21T14:55:02.989Z,99098.72
2018-09-21T14:57:31.525Z,99122.00
2018-09-21T15:00:00.197Z,99110.88
2018-09-21T15:02:28.701Z,99117.10
2018-09-21T15:04:57.280Z,99107.70
2018-09-21T15:07:25.828Z,99122.34
2018-09-21T15:09:54.398Z,99132.27
2018-09-21T15:12:23.005Z,99117.91
2018-09-21T15:14:51.568Z,99128.00
2018-09-21T15:17:20.104Z,99138.02
2018-09-21T15:19:48.653Z,99150.80
2018-09-21T15:22:17.243Z,99150.31
2018-09-21T15:24:45.769Z,99148.29
2018-09-21T15:27:14.577Z,99144.68
2018-09-21T15:29:43.128Z,99149.78
2018-09-21T15:32:11.739Z,99157.10
2018-09-21T15:34:43.255Z,99146.17
2018-09-21T15:37:16.914Z,99145.34
2018-09-21T15:39:45.581Z,99143.67
2018-09-21T15:42:16.672Z,99149.20
2018-09-21T15:44:45.224Z,99160.60
2018-09-21T15:47:21.361Z,99170.16
2018-09-21T15:49:49.980Z,99181.74
2018-09-21T15:52:18.537Z,99190.70
2018-09-21T15:54:51.892Z,99182.31
2018-09-21T15:57:25.503Z,99190.88
2018-09-21T15:59:54.338Z,99204.48
2018-09-21T16:02:28.383Z,99197.90
2018-09-21T16:04:57.085Z,99206.34
2018-09-21T16:07:30.791Z,99211.74
2018-09-21T16:09:59.527Z,99205.58
2018-09-21T16:12:33.243Z,99205.17
2018-09-21T16:15:09.079Z,99205.63
2018-09-21T16:17:37.823Z,99215.85
2018-09-21T16:20:12.906Z,99219.95
2018-09-21T16:22:48.191Z,99220.95
2018-09-21T16:25:20.524Z,99223.47
2018-09-21T16:27:58.075Z,99231.64
2018-09-21T16:30:26.823Z,99238.52
2018-09-21T16:35:40.725Z,99229.97
2018-09-21T16:38:19.687Z,99239.61
2018-09-21T16:40:55.902Z,99251.92
2018-09-21T16:43:31.779Z,99251.67
2018-09-21T16:46:10.803Z,99260.23
2018-09-21T16:48:47.554Z,99265.18
2018-09-21T16:51:19.298Z,99260.47
2018-09-21T16:53:48.188Z,99254.87
2018-09-21T16:56:16.862Z,99260.91
2018-09-21T16:58:49.556Z,99261.02
2018-09-21T17:01:20.558Z,99259.60
2018-09-21T17:03:51.339Z,99272.59
2018-09-21T17:06:20.448Z,99277.04
2018-09-21T17:08:49.229Z,99286.41
2018-09-21T17:11:17.841Z,99294.00
2018-09-21T17:13:50.835Z,99310.20
2018-09-21T17:16:23.942Z,99313.80
2018-09-21T17:18:53.772Z,99316.78
2018-09-21T17:21:23.820Z,99314.37
2018-09-21T17:23:54.653Z,99317.16
2018-09-21T17:26:25.641Z,99329.63
2018-09-21T17:28:56.152Z,99335.86
2018-09-21T17:31:31.309Z,99342.34
2018-09-21T17:34:00.559Z,99346.42
2018-09-21T17:36:33.332Z,99349.98
2018-09-21T17:39:01.984Z,99353.94
2018-09-21T17:41:35.939Z,99354.80
2018-09-21T17:44:04.654Z,99373.48
2018-09-21T17:46:33.688Z,99376.56
2018-09-21T17:49:02.491Z,99374.53
2018-09-21T17:51:38.153Z,99371.39
2018-09-21T17:54:09.439Z,99386.02
2018-09-21T17:56:39.153Z,99388.11
2018-09-21T17:59:09.311Z,99404.48
2018-09-21T18:01:42.682Z,99405.24
2018-09-21T18:04:21.344Z,99406.89
2018-09-21T18:06:57.886Z,99412.94
2018-09-21T18:09:34.596Z,99420.31
2018-09-21T18:12:08.884Z,99434.10
2018-09-21T18:14:46.721Z,99434.16
2018-09-21T18:17:24.218Z,99445.52
2018-09-21T18:20:04.956Z,99449.86
2018-09-21T18:22:40.684Z,99455.59
2018-09-21T18:25:16.141Z,99464.25
2018-09-21T18:27:52.323Z,99465.22
2018-09-21T18:30:28.383Z,99468.45
2018-09-21T18:32:58.732Z,99477.47
2018-09-21T18:35:28.975Z,99478.99
2018-09-21T18:38:16.137Z,99476.67
2018-09-21T18:40:49.137Z,99492.19
2018-09-21T18:43:19.833Z,99496.88
2018-09-21T18:45:49.822Z,99505.52
2018-09-21T18:48:20.383Z,99519.07
2018-09-21T18:50:57.337Z,99521.16
2018-09-21T18:53:27.033Z,99537.45
2018-09-21T18:56:02.379Z,99541.08
2018-09-21T18:58:31.129Z,99541.00
2018-09-21T19:01:05.918Z,99543.75
2018-09-21T19:03:34.706Z,99549.53
2018-09-21T19:06:03.245Z,99558.51
2018-09-21T19:08:31.859Z,99565.53
2018-09-21T19:11:00.400Z,99564.23
2018-09-21T19:13:28.967Z,99561.47
2018-09-21T19:15:57.468Z,99573.35
2018-09-21T19:18:26.062Z,99576.44
2018-09-21T19:20:54.575Z,99578.91
2018-09-21T19:23:23.073Z,99583.90
2018-09-21T19:25:51.602Z,99583.58
2018-09-21T19:28:20.089Z,99588.84
2018-09-21T19:30:48.617Z,99590.99
2018-09-21T19:33:17.113Z,99603.06
2018-09-21T19:35:45.662Z,99605.86
2018-09-21T19:38:14.432Z,99608.97
2018-09-21T19:40:43.036Z,99611.00
2018-09-21T19:43:11.562Z,99616.58
2018-09-21T19:45:40.090Z,99613.39
2018-09-21T19:48:08.661Z,99617.71
2018-09-21T19:50:37.190Z,99612.08
2018-09-21T19:53:05.747Z,99608.86
2018-09-21T19:55:34.269Z,99612.63
2018-09-21T19:58:03.281Z,99620.34
2018-09-21T20:00:31.822Z,99620.33
2018-09-21T20:03:03.540Z,99618.65
2018-09-21T20:05:32.109Z,99621.75
2018-09-21T20:08:00.633Z,99632.19
2018-09-21T20:10:30.127Z,99630.12
2018-09-21T20:13:03.293Z,99644.67
2018-09-21T20:15:31.812Z,99641.75
2018-09-21T20:18:00.550Z,99645.21
2018-09-21T20:20:29.227Z,99650.30
2018-09-21T20:22:58.258Z,99646.36
2018-09-21T20:25:27.881Z,99645.97
2018-09-21T20:27:56.835Z,99655.01
2018-09-21T20:30:31.085Z,99656.33
2018-09-21T20:33:06.058Z,99645.05
2018-09-21T20:35:35.472Z,99657.89
2018-09-21T20:38:10.263Z,99678.78
2018-09-21T20:40:39.502Z,99678.14
2018-09-21T20:43:10.419Z,99681.61
2018-09-21T20:45:40.331Z,99685.02
2018-09-21T20:48:15.302Z,99691.86
2018-09-21T20:50:45.394Z,99693.23
2018-09-21T20:53:15.339Z,99698.70
2018-09-21T20:55:45.817Z,99692.04
2018-09-21T20:58:16.305Z,99692.46
2018-09-21T21:00:45.228Z,99701.91
2018-09-21T21:03:14.214Z,99698.98
2018-09-21T21:05:44.163Z,99709.43
2018-09-21T21:08:14.938Z,99697.44
2018-09-21T21:10:45.976Z,99701.52
2018-09-21T21:13:15.549Z,99695.03
2018-09-21T21:15:44.754Z,99695.33
2018-09-21T21:18:14.562Z,99706.16
2018-09-21T21:20:46.225Z,99712.09
2018-09-21T21:23:18.391Z,99706.80
2018-09-21T21:25:51.161Z,99707.73
2018-09-21T21:28:23.144Z,99718.68
2018-09-21T21:30:54.626Z,99714.92
2018-09-21T21:33:23.871Z,99723.66
2018-09-21T21:36:00.167Z,99736.76
2018-09-21T21:38:35.728Z,99740.14
2018-09-21T21:41:12.913Z,99735.55
2018-09-21T21:43:48.660Z,99734.53
2018-09-21T21:46:25.461Z,99738.11
2018-09-21T21:49:02.244Z,99737.82
2018-09-21T21:51:36.392Z,99737.72
2018-09-21T21:54:11.747Z,99745.16
2018-09-21T21:56:46.432Z,99746.98
2018-09-21T21:59:20.596Z,99761.58
2018-09-21T22:01:55.921Z,99764.90
2018-09-21T22:04:31.843Z,99761.19
2018-09-21T22:07:07.802Z,99778.08
2018-09-21T22:09:42.171Z,99782.59
2018-09-21T22:12:21.109Z,99777.59
2018-09-21T22:14:55.655Z,99781.14
2018-09-21T22:17:31.979Z,99793.05
2018-09-21T22:20:06.713Z,99802.95
2018-09-21T22:22:41.468Z,99812.30
2018-09-21T22:25:16.298Z,99810.41
2018-09-21T22:27:51.979Z,99807.95
2018-09-21T22:30:26.294Z,99807.68
2018-09-21T22:33:02.256Z,99804.18
2018-09-21T22:35:30.938Z,99802.73
2018-09-21T22:37:59.461Z,99794.13
2018-09-21T22:40:27.955Z,99798.66
2018-09-21T22:42:56.481Z,99794.57
2018-09-21T22:45:24.965Z,99800.27
2018-09-21T22:47:53.516Z,99795.66
2018-09-21T22:50:22.009Z,99793.20
2018-09-21T22:52:50.538Z,99798.55
2018-09-21T22:55:19.029Z,99794.80
2018-09-21T22:57:47.549Z,99805.19
2018-09-21T23:00:16.063Z,99803.04
2018-09-21T23:02:44.581Z,99793.62
2018-09-21T23:05:13.068Z,99800.35
2018-09-21T23:07:41.593Z,99808.20
2018-09-21T23:10:10.171Z,99805.45
2018-09-21T23:12:38.717Z,99821.27
2018-09-21T23:15:07.266Z,99813.91
2018-09-21T23:17:35.797Z,99813.47
2018-09-21T23:20:04.346Z,99811.83
2018-09-21T23:22:32.888Z,99814.09
2018-09-21T23:25:01.371Z,99816.57
2018-09-21T23:27:29.888Z,99802.17
2018-09-21T23:29:58.373Z,99809.05
2018-09-21T23:32:26.889Z,99809.60
2018-09-21T23:34:55.427Z,99816.16
2018-09-21T23:37:24.286Z,99822.09
2018-09-21T23:39:52.778Z,99822.72
2018-09-21T23:42:21.289Z,99830.67
2018-09-21T23:44:49.781Z,99834.22
2018-09-21T23:47:18.324Z,99831.52
2018-09-21T23:49:46.812Z,99835.77
2018-09-21T23:52:15.320Z,99837.20
2018-09-21T23:54:44.057Z,99841.73
2018-09-21T23:57:12.565Z,99839.50
2018-09-21T23:59:41.084Z,99839.34
